createdAt,value
2019-05-13T00:02:01.304Z,101956.84
2019-05-13T00:12:39.547Z,101950.06
2019-05-13T00:17:45.048Z,101954.86
2019-05-13T00:22:50.153Z,101957.42
2019-05-13T00:27:55.533Z,101964.77
2019-05-13T00:33:00.610Z,101966.43
2019-05-13T00:43:37.666Z,101971.64
2019-05-13T00:48:44.003Z,101981.42
2019-05-13T00:53:49.128Z,101983.41
2019-05-13T00:58:54.263Z,101992.55
2019-05-13T01:03:59.284Z,101986.28
2019-05-13T01:09:05.659Z,101985.52
2019-05-13T01:14:11.018Z,101982.70
2019-05-13T01:19:16.036Z,101983.34
2019-05-13T01:24:21.009Z,101989.13
2019-05-13T01:29:26.002Z,101991.78
2019-05-13T01:34:33.776Z,101989.42
2019-05-13T01:39:38.081Z,101994.91
2019-05-13T01:44:43.763Z,101995.64
2019-05-13T01:49:48.823Z,102000.20
2019-05-13T01:54:54.332Z,102000.80
2019-05-13T01:59:59.617Z,102007.20
2019-05-13T02:05:04.741Z,102004.97
2019-05-13T02:10:11.505Z,102013.95
2019-05-13T02:15:16.501Z,102018.96
2019-05-13T02:20:21.485Z,102025.40
2019-05-13T02:25:56.744Z,102031.54
2019-05-13T02:31:01.772Z,102029.45
2019-05-13T02:36:06.745Z,102030.02
2019-05-13T02:41:13.387Z,102031.11
2019-05-13T02:46:37.558Z,102026.20
2019-05-13T02:51:43.273Z,102029.03
2019-05-13T02:56:48.438Z,102028.83
2019-05-13T03:01:53.761Z,102033.37
2019-05-13T03:06:58.854Z,102042.20
2019-05-13T03:12:04.580Z,102044.20
2019-05-13T03:17:15.723Z,102045.31
2019-05-13T03:22:22.418Z,102044.44
2019-05-13T03:27:27.373Z,102057.31
2019-05-13T03:32:42.956Z,102047.67
2019-05-13T03:37:42.417Z,102048.47
2019-05-13T03:42:48.524Z,102044.20
2019-05-13T03:47:56.155Z,102047.45
2019-05-13T03:53:03.078Z,102057.36
2019-05-13T03:58:08.756Z,102058.26
2019-05-13T04:03:14.153Z,102068.61
2019-05-13T04:08:22.463Z,102066.69
2019-05-13T04:13:25.906Z,102076.39
2019-05-13T04:18:32.037Z,102068.22
2019-05-13T04:23:37.572Z,102073.86
2019-05-13T04:28:43.819Z,102083.00
2019-05-13T04:33:49.057Z,102081.16
2019-05-13T04:38:54.124Z,102089.45
2019-05-13T04:44:02.329Z,102095.45
2019-05-13T04:49:06.891Z,102097.44
2019-05-13T04:54:13.084Z,102107.77
2019-05-13T04:59:18.260Z,102114.77
2019-05-13T05:04:43.358Z,102110.50
2019-05-13T05:10:21.306Z,102124.22
2019-05-13T05:15:41.976Z,102124.44
2019-05-13T05:21:07.609Z,102128.55
2019-05-13T05:26:48.198Z,102127.98
2019-05-13T05:32:35.769Z,102135.03
2019-05-13T05:38:25.836Z,102130.84
2019-05-13T05:43:31.461Z,102137.12
2019-05-13T05:48:36.578Z,102140.73
2019-05-13T05:53:44.179Z,102141.91
2019-05-13T05:58:52.430Z,102148.69
2019-05-13T06:03:58.894Z,102149.52
2019-05-13T06:09:09.349Z,102161.20
2019-05-13T06:14:16.682Z,102158.03
2019-05-13T06:19:22.635Z,102152.81
2019-05-13T06:24:27.623Z,102155.48
2019-05-13T06:29:32.751Z,102153.83
2019-05-13T06:34:38.672Z,102160.03
2019-05-13T06:39:45.072Z,102168.63
2019-05-13T06:44:51.559Z,102165.19
2019-05-13T06:49:56.581Z,102168.36
2019-05-13T06:55:02.737Z,102172.03
2019-05-13T07:00:08.547Z,102174.75
2019-05-13T07:05:13.798Z,102174.89
2019-05-13T07:10:18.851Z,102168.16
2019-05-13T07:15:23.830Z,102164.02
2019-05-13T07:20:31.895Z,102155.49
2019-05-13T07:25:35.772Z,102164.84
2019-05-13T07:30:42.805Z,102162.48
2019-05-13T07:35:48.011Z,102171.86
2019-05-13T07:41:03.734Z,102160.52
2019-05-13T07:46:08.857Z,102166.79
2019-05-13T07:51:14.276Z,102167.38
2019-05-13T07:56:21.867Z,102160.02
2019-05-13T08:01:26.354Z,102163.44
2019-05-13T08:06:44.728Z,102165.63
2019-05-13T08:12:04.386Z,102162.22
2019-05-13T08:16:56.548Z,102165.89
2019-05-13T08:22:02.379Z,102164.67
2019-05-13T08:27:12.758Z,102161.45
2019-05-13T08:32:17.784Z,102164.64
2019-05-13T08:37:23.147Z,102163.78
2019-05-13T08:42:28.193Z,102166.94
2019-05-13T08:47:34.637Z,102161.63
2019-05-13T08:52:42.039Z,102163.08
2019-05-13T08:57:46.484Z,102157.81
2019-05-13T09:02:52.211Z,102155.96
2019-05-13T09:07:57.430Z,102156.13
2019-05-13T09:13:02.454Z,102150.45
2019-05-13T09:18:07.602Z,102147.14
2019-05-13T09:23:12.635Z,102145.22
2019-05-13T09:28:17.712Z,102142.75
2019-05-13T09:33:22.675Z,102151.80
2019-05-13T09:38:28.130Z,102143.16
2019-05-13T09:43:33.172Z,102136.22
2019-05-13T09:48:38.182Z,102129.69
2019-05-13T09:53:43.209Z,102133.94
2019-05-13T09:58:48.190Z,102132.27
2019-05-13T10:03:57.856Z,102123.09
2019-05-13T10:09:07.186Z,102120.62
2019-05-13T10:14:12.264Z,102123.09
2019-05-13T10:19:17.856Z,102127.50
2019-05-13T10:24:23.110Z,102138.08
2019-05-13T10:29:28.612Z,102129.73
2019-05-13T10:34:34.436Z,102126.45
2019-05-13T10:39:39.495Z,102125.27
2019-05-13T10:44:44.536Z,102131.13
2019-05-13T10:49:52.387Z,102119.94
2019-05-13T10:54:56.497Z,102126.36
2019-05-13T11:00:03.295Z,102121.55
2019-05-13T11:05:12.212Z,102123.43
2019-05-13T11:10:22.450Z,102120.92
2019-05-13T11:15:32.809Z,102119.59
2019-05-13T11:20:34.234Z,102110.25
2019-05-13T11:25:41.572Z,102106.52
2019-05-13T11:30:46.310Z,102101.17
2019-05-13T11:35:52.287Z,102094.74
2019-05-13T11:40:57.686Z,102092.32
2019-05-13T11:46:02.818Z,102100.63
2019-05-13T11:51:07.918Z,102095.81
2019-05-13T11:56:12.984Z,102071.66
2019-05-13T12:01:18.388Z,102063.02
2019-05-13T12:06:23.719Z,102060.19
2019-05-13T12:11:28.868Z,102046.90
2019-05-13T12:16:35.016Z,102054.21
2019-05-13T12:21:43.256Z,102043.55
2019-05-13T12:26:46.993Z,102043.22
2019-05-13T12:31:52.839Z,102040.94
2019-05-13T12:36:58.014Z,102038.67
2019-05-13T12:42:03.504Z,102022.85
2019-05-13T12:47:11.412Z,102008.63
2019-05-13T12:52:15.713Z,102014.36
2019-05-13T12:57:25.920Z,102006.20
2019-05-13T13:02:32.591Z,102013.30
2019-05-13T13:07:42.284Z,101998.60
2019-05-13T13:12:44.667Z,101988.97
2019-05-13T13:17:53.613Z,101993.00
2019-05-13T13:22:56.880Z,101978.41
2019-05-13T13:28:11.087Z,101969.65
2019-05-13T13:33:09.057Z,101969.69
2019-05-13T13:38:14.086Z,101965.27
2019-05-13T13:43:23.523Z,101955.14
2019-05-13T13:48:26.168Z,101962.31
2019-05-13T13:53:33.240Z,101949.70
2019-05-13T13:58:37.955Z,101949.66
2019-05-13T14:03:46.142Z,101950.67
2019-05-13T14:08:47.609Z,101940.41
2019-05-13T14:13:51.845Z,101943.39
2019-05-13T14:18:55.982Z,101935.30
2019-05-13T14:24:02.442Z,101936.53
2019-05-13T14:29:05.796Z,101939.59
2019-05-13T14:34:11.449Z,101929.49
2019-05-13T14:39:15.751Z,101927.74
2019-05-13T14:44:21.962Z,101915.09
2019-05-13T14:49:25.564Z,101919.07
2019-05-13T14:54:31.368Z,101909.64
2019-05-13T14:59:35.455Z,101921.34
2019-05-13T15:04:41.841Z,101908.72
2019-05-13T15:09:45.136Z,101899.58
2019-05-13T15:14:49.162Z,101901.41
2019-05-13T15:19:55.200Z,101902.13
2019-05-13T15:24:59.663Z,101901.95
2019-05-13T15:30:18.352Z,101901.83
2019-05-13T15:35:10.915Z,101901.30
2019-05-13T15:40:14.996Z,101900.30
2019-05-13T15:45:21.334Z,101893.11
2019-05-13T15:50:25.757Z,101888.48
2019-05-13T15:55:29.886Z,101882.00
2019-05-13T16:00:33.910Z,101878.55
2019-05-13T16:05:37.912Z,101878.34
2019-05-13T16:10:42.139Z,101876.22
2019-05-13T16:15:46.200Z,101871.94
2019-05-13T16:20:51.993Z,101876.54
2019-05-13T16:25:55.775Z,101867.98
2019-05-13T16:31:01.994Z,101867.45
2019-05-13T16:36:05.502Z,101866.14
2019-05-13T16:41:11.965Z,101856.21
2019-05-13T16:46:15.711Z,101859.73
2019-05-13T16:51:21.585Z,101860.27
2019-05-13T16:56:29.702Z,101864.08
2019-05-13T17:01:31.162Z,101858.47
2019-05-13T17:06:41.652Z,101858.19
2019-05-13T17:11:45.713Z,101862.73
2019-05-13T17:16:51.715Z,101858.73
2019-05-13T17:21:55.296Z,101851.77
2019-05-13T17:27:01.390Z,101853.11
2019-05-13T17:32:04.871Z,101857.13
2019-05-13T17:37:11.576Z,101858.73
2019-05-13T17:42:14.665Z,101851.22
2019-05-13T17:47:18.530Z,101846.42
2019-05-13T17:52:22.676Z,101858.20
2019-05-13T17:57:26.622Z,101854.45
2019-05-13T18:02:31.391Z,101857.92
2019-05-13T18:07:35.486Z,101860.88
2019-05-13T18:12:41.658Z,101858.75
2019-05-13T18:17:45.060Z,101864.09
2019-05-13T18:22:52.175Z,101860.61
2019-05-13T18:27:55.968Z,101853.13
2019-05-13T18:33:01.251Z,101855.55
2019-05-13T18:38:05.462Z,101855.55
2019-05-13T18:43:09.401Z,101853.70
2019-05-13T18:48:14.287Z,101847.02
2019-05-13T18:53:18.702Z,101844.84
2019-05-13T18:58:22.666Z,101840.30
2019-05-13T19:03:26.892Z,101847.52
2019-05-13T19:08:32.101Z,101842.44
2019-05-13T19:13:37.392Z,101835.74
2019-05-13T19:18:42.299Z,101844.83
2019-05-13T19:23:46.396Z,101850.18
2019-05-13T19:28:51.664Z,101856.34
2019-05-13T19:33:58.718Z,101849.38
2019-05-13T19:39:04.458Z,101851.76
2019-05-13T19:44:08.934Z,101853.08
2019-05-13T19:49:28.258Z,101840.80
2019-05-13T19:54:18.951Z,101847.19
2019-05-13T19:59:22.870Z,101848.23
2019-05-13T20:04:26.984Z,101855.72
2019-05-13T20:09:32.201Z,101850.59
2019-05-13T20:14:36.431Z,101841.48
2019-05-13T20:19:47.686Z,101840.95
2019-05-13T20:24:46.855Z,101834.72
2019-05-13T20:29:51.281Z,101836.02
2019-05-13T20:34:55.426Z,101827.73
2019-05-13T20:40:01.899Z,101837.55
2019-05-13T20:45:05.127Z,101836.47
2019-05-13T20:50:09.102Z,101840.46
2019-05-13T20:55:13.706Z,101838.32
2019-05-13T21:00:17.798Z,101836.98
2019-05-13T21:05:21.996Z,101840.70
2019-05-13T21:10:25.955Z,101843.08
2019-05-13T21:15:31.713Z,101847.63
2019-05-13T21:20:35.547Z,101846.78
2019-05-13T21:25:41.628Z,101840.36
2019-05-13T21:30:45.587Z,101843.00
2019-05-13T21:35:51.168Z,101843.23
2019-05-13T21:41:07.140Z,101839.19
2019-05-13T21:46:12.055Z,101846.36
2019-05-13T21:51:16.413Z,101846.83
2019-05-13T21:56:22.993Z,101843.31
2019-05-13T22:01:25.998Z,101837.39
2019-05-13T22:06:32.103Z,101835.20
2019-05-13T22:11:35.768Z,101830.12
2019-05-13T22:16:41.234Z,101836.72
2019-05-13T22:21:45.354Z,101833.73
2019-05-13T22:26:51.114Z,101831.78
2019-05-13T22:31:54.784Z,101836.03
2019-05-13T22:36:58.760Z,101832.81
2019-05-13T22:42:02.719Z,101834.68
2019-05-13T22:47:06.688Z,101831.77
2019-05-13T22:52:11.432Z,101839.97
2019-05-13T22:57:16.895Z,101835.72
2019-05-13T23:02:21.931Z,101838.87
2019-05-13T23:07:26.212Z,101838.05
2019-05-13T23:12:31.439Z,101827.88
2019-05-13T23:17:35.710Z,101830.01
2019-05-13T23:22:41.469Z,101826.01
2019-05-13T23:27:45.251Z,101824.91
2019-05-13T23:32:51.601Z,101819.53
2019-05-13T23:37:54.872Z,101815.78
2019-05-13T23:42:59.084Z,101812.53
2019-05-13T23:48:03.419Z,101815.17
2019-05-13T23:53:07.353Z,101813.80
2019-05-13T23:58:12.324Z,101819.55
